sensor_id;sensor_type;location;lat;lon;timestamp;pressure;altitude;pressure_sealevel;temperature;humidity
67397;BME280;57728;50.448;18.824;2023-02-02T00:01:33;96980.97;;;1.79;80.10
67397;BME280;57728;50.448;18.824;2023-02-02T00:03:36;96915.81;;;1.43;79.98
67397;BME280;57728;50.448;18.824;2023-02-02T00:05:38;96974.78;;;1.78;80.05
67397;BME280;57728;50.448;18.824;2023-02-02T00:07:44;96979.09;;;1.79;80.12
67397;BME280;57728;50.448;18.824;2023-02-02T00:09:46;96997.50;;;1.89;80.34
67397;BME280;57728;50.448;18.824;2023-02-02T00:11:49;96988.41;;;1.83;80.18
67397;BME280;57728;50.448;18.824;2023-02-02T00:13:51;96969.78;;;1.68;80.19
67397;BME280;57728;50.448;18.824;2023-02-02T00:15:54;96987.41;;;1.91;80.24
67397;BME280;57728;50.448;18.824;2023-02-02T00:17:55;97006.00;;;1.93;80.20
67397;BME280;57728;50.448;18.824;2023-02-02T00:19:56;97003.09;;;1.94;80.37
67397;BME280;57728;50.448;18.824;2023-02-02T00:21:59;96976.19;;;1.81;80.15
67397;BME280;57728;50.448;18.824;2023-02-02T00:24:00;96981.19;;;1.91;80.12
67397;BME280;57728;50.448;18.824;2023-02-02T00:26:01;96989.88;;;1.93;80.02
67397;BME280;57728;50.448;18.824;2023-02-02T00:28:04;96987.41;;;1.91;80.13
67397;BME280;57728;50.448;18.824;2023-02-02T00:30:06;96992.38;;;1.94;80.18
67397;BME280;57728;50.448;18.824;2023-02-02T00:32:09;96949.56;;;1.79;80.03
67397;BME280;57728;50.448;18.824;2023-02-02T00:34:12;96937.59;;;1.68;80.08
67397;BME280;57728;50.448;18.824;2023-02-02T00:36:16;96982.25;;;1.96;79.96
67397;BME280;57728;50.448;18.824;2023-02-02T00:38:19;97002.31;;;2.07;80.12
67397;BME280;57728;50.448;18.824;2023-02-02T00:40:21;97003.97;;;2.08;80.13
67397;BME280;57728;50.448;18.824;2023-02-02T00:42:22;97006.66;;;2.08;79.97
67397;BME280;57728;50.448;18.824;2023-02-02T00:44:24;96982.28;;;2.10;80.08
67397;BME280;57728;50.448;18.824;2023-02-02T00:46:44;96957.63;;;1.79;80.01
67397;BME280;57728;50.448;18.824;2023-02-02T00:48:46;96996.34;;;2.12;79.92
67397;BME280;57728;50.448;18.824;2023-02-02T00:50:47;96998.81;;;2.06;80.05
67397;BME280;57728;50.448;18.824;2023-02-02T00:52:52;96951.88;;;1.89;79.97
67397;BME280;57728;50.448;18.824;2023-02-02T00:54:54;96993.44;;;2.13;80.05
67397;BME280;57728;50.448;18.824;2023-02-02T00:56:55;96996.78;;;2.15;79.88
67397;BME280;57728;50.448;18.824;2023-02-02T00:58:57;96955.81;;;1.93;80.00
67397;BME280;57728;50.448;18.824;2023-02-02T01:00:58;96987.66;;;2.16;80.04
67397;BME280;57728;50.448;18.824;2023-02-02T01:03:00;96994.09;;;2.15;79.95
67397;BME280;57728;50.448;18.824;2023-02-02T01:05:05;96997.38;;;2.17;80.10
67397;BME280;57728;50.448;18.824;2023-02-02T01:07:07;96994.69;;;2.17;80.11
67397;BME280;57728;50.448;18.824;2023-02-02T01:09:08;96994.28;;;2.20;79.94
67397;BME280;57728;50.448;18.824;2023-02-02T01:11:10;97007.50;;;2.22;79.92
67397;BME280;57728;50.448;18.824;2023-02-02T01:13:12;96994.50;;;2.19;80.04
67397;BME280;57728;50.448;18.824;2023-02-02T01:15:13;96983.31;;;2.09;79.99
67397;BME280;57728;50.448;18.824;2023-02-02T01:17:16;97005.06;;;2.27;80.10
67397;BME280;57728;50.448;18.824;2023-02-02T01:19:17;96997.41;;;2.24;80.07
67397;BME280;57728;50.448;18.824;2023-02-02T01:21:19;96999.06;;;2.25;80.00
67397;BME280;57728;50.448;18.824;2023-02-02T01:23:22;96983.34;;;2.22;79.83
67397;BME280;57728;50.448;18.824;2023-02-02T01:25:24;96977.94;;;2.09;79.90
67397;BME280;57728;50.448;18.824;2023-02-02T01:27:27;97011.50;;;2.39;79.90
67397;BME280;57728;50.448;18.824;2023-02-02T01:29:29;96979.22;;;2.26;79.68
67397;BME280;57728;50.448;18.824;2023-02-02T01:31:30;97007.38;;;2.44;79.90
67397;BME280;57728;50.448;18.824;2023-02-02T01:33:32;97006.94;;;2.40;79.79
67397;BME280;57728;50.448;18.824;2023-02-02T01:35:34;97009.22;;;2.50;79.60
67397;BME280;57728;50.448;18.824;2023-02-02T01:37:38;97001.56;;;2.47;79.50
67397;BME280;57728;50.448;18.824;2023-02-02T01:39:39;97002.00;;;2.50;79.56
67397;BME280;57728;50.448;18.824;2023-02-02T01:41:43;96995.38;;;2.46;79.30
67397;BME280;57728;50.448;18.824;2023-02-02T01:43:57;97002.41;;;2.47;79.50
67397;BME280;57728;50.448;18.824;2023-02-02T01:46:01;97017.31;;;2.63;79.48
67397;BME280;57728;50.448;18.824;2023-02-02T01:48:03;97021.44;;;2.66;79.34
67397;BME280;57728;50.448;18.824;2023-02-02T01:50:05;97026.00;;;2.65;79.33
67397;BME280;57728;50.448;18.824;2023-02-02T01:52:13;97018.34;;;2.69;79.13
67397;BME280;57728;50.448;18.824;2023-02-02T01:54:23;97025.16;;;2.71;79.19
67397;BME280;57728;50.448;18.824;2023-02-02T01:56:39;96993.09;;;2.50;78.96
67397;BME280;57728;50.448;18.824;2023-02-02T01:58:46;97013.59;;;2.78;78.82
67397;BME280;57728;50.448;18.824;2023-02-02T02:00:49;96945.34;;;2.38;78.78
67397;BME280;57728;50.448;18.824;2023-02-02T02:03:08;97036.75;;;2.79;78.59
67397;BME280;57728;50.448;18.824;2023-02-02T02:05:19;97016.91;;;2.73;78.47
67397;BME280;57728;50.448;18.824;2023-02-02T02:07:28;97016.91;;;2.66;78.52
67397;BME280;57728;50.448;18.824;2023-02-02T02:09:30;97011.53;;;2.66;78.41
67397;BME280;57728;50.448;18.824;2023-02-02T02:11:34;97001.19;;;2.56;78.58
67397;BME280;57728;50.448;18.824;2023-02-02T02:13:38;97039.66;;;2.84;78.53
67397;BME280;57728;50.448;18.824;2023-02-02T02:16:14;97038.00;;;2.89;78.41
67397;BME280;57728;50.448;18.824;2023-02-02T02:23:59;97059.09;;;2.99;77.95
67397;BME280;57728;50.448;18.824;2023-02-02T02:29:58;97061.38;;;3.02;77.78
67397;BME280;57728;50.448;18.824;2023-02-02T02:34:59;97062.81;;;2.98;77.58
67397;BME280;57728;50.448;18.824;2023-02-02T02:39:37;97050.81;;;2.87;77.64
67397;BME280;57728;50.448;18.824;2023-02-02T02:42:12;97061.38;;;2.96;77.63
67397;BME280;57728;50.448;18.824;2023-02-02T02:44:19;97058.69;;;2.96;77.38
67397;BME280;57728;50.448;18.824;2023-02-02T02:46:24;97034.09;;;2.79;77.43
67397;BME280;57728;50.448;18.824;2023-02-02T02:48:28;97055.34;;;2.87;77.26
67397;BME280;57728;50.448;18.824;2023-02-02T02:50:29;97020.19;;;2.68;77.36
67397;BME280;57728;50.448;18.824;2023-02-02T02:52:37;97046.47;;;2.86;77.29
67397;BME280;57728;50.448;18.824;2023-02-02T02:54:45;97043.16;;;2.91;77.47
67397;BME280;57728;50.448;18.824;2023-02-02T03:04:58;97038.44;;;2.93;77.28
67397;BME280;57728;50.448;18.824;2023-02-02T03:07:11;97032.00;;;2.94;76.80
67397;BME280;57728;50.448;18.824;2023-02-02T03:09:25;97047.53;;;3.05;76.77
67397;BME280;57728;50.448;18.824;2023-02-02T03:11:36;97070.06;;;3.18;76.77
67397;BME280;57728;50.448;18.824;2023-02-02T03:13:40;97054.34;;;3.21;76.64
67397;BME280;57728;50.448;18.824;2023-02-02T03:15:44;97067.78;;;3.21;76.51
67397;BME280;57728;50.448;18.824;2023-02-02T03:17:49;97031.78;;;3.09;76.31
67397;BME280;57728;50.448;18.824;2023-02-02T03:19:53;97055.81;;;3.24;76.25
67397;BME280;57728;50.448;18.824;2023-02-02T03:21:54;97046.06;;;3.16;76.12
67397;BME280;57728;50.448;18.824;2023-02-02T03:23:57;97060.13;;;3.25;75.99
67397;BME280;57728;50.448;18.824;2023-02-02T03:25:58;97046.91;;;3.17;76.17
67397;BME280;57728;50.448;18.824;2023-02-02T03:28:01;97044.59;;;3.14;75.81
67397;BME280;57728;50.448;18.824;2023-02-02T03:30:04;97074.19;;;3.20;75.60
67397;BME280;57728;50.448;18.824;2023-02-02T03:32:08;97067.38;;;3.18;75.58
67397;BME280;57728;50.448;18.824;2023-02-02T03:34:11;97071.94;;;3.17;75.76
67397;BME280;57728;50.448;18.824;2023-02-02T03:36:12;97066.75;;;3.16;75.64
67397;BME280;57728;50.448;18.824;2023-02-02T03:38:13;97067.78;;;3.15;75.64
67397;BME280;57728;50.448;18.824;2023-02-02T03:40:16;97072.78;;;3.11;75.65
67397;BME280;57728;50.448;18.824;2023-02-02T03:42:17;97076.91;;;3.07;75.89
67397;BME280;57728;50.448;18.824;2023-02-02T03:44:18;97073.78;;;3.03;75.89
67397;BME280;57728;50.448;18.824;2023-02-02T03:46:21;97074.41;;;2.99;75.97
67397;BME280;57728;50.448;18.824;2023-02-02T03:48:22;97070.28;;;2.96;75.90
67397;BME280;57728;50.448;18.824;2023-02-02T03:50:23;97064.47;;;2.92;76.04
67397;BME280;57728;50.448;18.824;2023-02-02T03:52:26;97066.53;;;2.90;75.83
67397;BME280;57728;50.448;18.824;2023-02-02T03:54:27;97051.63;;;2.81;75.86
67397;BME280;57728;50.448;18.824;2023-02-02T03:56:29;97022.06;;;2.61;75.95
67397;BME280;57728;50.448;18.824;2023-02-02T03:58:31;97066.53;;;2.90;75.91
67397;BME280;57728;50.448;18.824;2023-02-02T04:00:33;97023.09;;;2.67;75.66
67397;BME280;57728;50.448;18.824;2023-02-02T04:02:34;97061.78;;;2.92;75.67
67397;BME280;57728;50.448;18.824;2023-02-02T04:04:36;97058.28;;;2.92;75.40
67397;BME280;57728;50.448;18.824;2023-02-02T04:06:38;97046.91;;;2.83;75.41
67397;BME280;57728;50.448;18.824;2023-02-02T04:08:39;97063.44;;;2.93;75.47
67397;BME280;57728;50.448;18.824;2023-02-02T04:10:41;97058.50;;;2.97;75.56
67397;BME280;57728;50.448;18.824;2023-02-02T04:12:43;97042.56;;;2.89;75.27
67397;BME280;57728;50.448;18.824;2023-02-02T04:14:44;97062.44;;;3.01;75.20
67397;BME280;57728;50.448;18.824;2023-02-02T04:16:46;97068.63;;;3.02;75.29
67397;BME280;57728;50.448;18.824;2023-02-02T04:18:48;97065.50;;;3.05;75.22
67397;BME280;57728;50.448;18.824;2023-02-02T04:20:49;97056.22;;;3.07;75.10
67397;BME280;57728;50.448;18.824;2023-02-02T04:22:57;97057.88;;;3.08;75.00
67397;BME280;57728;50.448;18.824;2023-02-02T04:24:58;97018.56;;;2.87;74.95
67397;BME280;57728;50.448;18.824;2023-02-02T04:26:59;97059.09;;;3.06;74.92
67397;BME280;57728;50.448;18.824;2023-02-02T04:29:02;97020.00;;;2.77;74.87
67397;BME280;57728;50.448;18.824;2023-02-02T04:31:03;97041.53;;;2.90;75.14
67397;BME280;57728;50.448;18.824;2023-02-02T04:33:04;97062.19;;;2.96;75.18
67397;BME280;57728;50.448;18.824;2023-02-02T04:35:07;97055.38;;;2.93;75.41
67397;BME280;57728;50.448;18.824;2023-02-02T04:37:09;97056.59;;;2.91;75.65
67397;BME280;57728;50.448;18.824;2023-02-02T04:39:11;97046.91;;;2.90;75.54
67397;BME280;57728;50.448;18.824;2023-02-02T04:41:13;97058.69;;;2.89;75.75
67397;BME280;57728;50.448;18.824;2023-02-02T04:43:15;96949.06;;;2.24;75.81
67397;BME280;57728;50.448;18.824;2023-02-02T04:45:17;97035.72;;;2.80;75.77
67397;BME280;57728;50.448;18.824;2023-02-02T04:47:19;97027.84;;;2.71;76.00
67397;BME280;57728;50.448;18.824;2023-02-02T04:49:21;97038.00;;;2.76;75.77
67397;BME280;57728;50.448;18.824;2023-02-02T04:51:22;97049.97;;;2.87;75.89
67397;BME280;57728;50.448;18.824;2023-02-02T04:53:24;97028.47;;;2.73;75.80
67397;BME280;57728;50.448;18.824;2023-02-02T04:55:26;97054.75;;;2.85;76.01
67397;BME280;57728;50.448;18.824;2023-02-02T04:57:27;97042.13;;;2.85;75.86
67397;BME280;57728;50.448;18.824;2023-02-02T04:59:29;97019.78;;;2.71;75.85
67397;BME280;57728;50.448;18.824;2023-02-02T05:01:31;97036.53;;;2.87;75.83
67397;BME280;57728;50.448;18.824;2023-02-02T05:03:32;97037.19;;;2.89;75.74
67397;BME280;57728;50.448;18.824;2023-02-02T05:05:34;97016.06;;;2.72;75.76
67397;BME280;57728;50.448;18.824;2023-02-02T05:07:36;97023.50;;;2.77;75.90
67397;BME280;57728;50.448;18.824;2023-02-02T05:09:37;97045.88;;;2.84;75.79
67397;BME280;57728;50.448;18.824;2023-02-02T05:11:40;97041.91;;;2.87;75.83
67397;BME280;57728;50.448;18.824;2023-02-02T05:13:46;97034.69;;;2.81;75.57
67397;BME280;57728;50.448;18.824;2023-02-02T05:15:52;97028.28;;;2.82;75.52
67397;BME280;57728;50.448;18.824;2023-02-02T05:17:55;97034.91;;;2.79;75.42
67397;BME280;57728;50.448;18.824;2023-02-02T05:19:57;97041.72;;;2.88;75.27
67397;BME280;57728;50.448;18.824;2023-02-02T05:21:58;96997.66;;;2.63;75.20
67397;BME280;57728;50.448;18.824;2023-02-02T05:24:00;97028.69;;;2.79;75.22
67397;BME280;57728;50.448;18.824;2023-02-02T05:26:03;97014.00;;;2.68;74.96
67397;BME280;57728;50.448;18.824;2023-02-02T05:28:05;97030.75;;;2.77;75.11
67397;BME280;57728;50.448;18.824;2023-02-02T05:30:09;97020.00;;;2.77;74.90
67397;BME280;57728;50.448;18.824;2023-02-02T05:32:11;97027.03;;;2.78;75.08
67397;BME280;57728;50.448;18.824;2023-02-02T05:34:13;97041.31;;;2.85;74.94
67397;BME280;57728;50.448;18.824;2023-02-02T05:36:15;96983.81;;;2.52;74.71
67397;BME280;57728;50.448;18.824;2023-02-02T05:38:16;97023.31;;;2.79;74.73
67397;BME280;57728;50.448;18.824;2023-02-02T05:40:17;97039.66;;;2.84;74.81
67397;BME280;57728;50.448;18.824;2023-02-02T05:42:20;96994.56;;;2.59;74.74
67397;BME280;57728;50.448;18.824;2023-02-02T05:44:21;97020.00;;;2.77;74.72
67397;BME280;57728;50.448;18.824;2023-02-02T05:46:22;97026.22;;;2.84;74.35
67397;BME280;57728;50.448;18.824;2023-02-02T05:48:25;96991.03;;;2.58;74.23
67397;BME280;57728;50.448;18.824;2023-02-02T05:50:27;96997.06;;;2.67;74.50
67397;BME280;57728;50.448;18.824;2023-02-02T05:52:38;97012.75;;;2.77;74.27
67397;BME280;57728;50.448;18.824;2023-02-02T05:54:42;97030.56;;;2.85;74.25
67397;BME280;57728;50.448;18.824;2023-02-02T05:56:45;97016.69;;;2.81;74.11
67397;BME280;57728;50.448;18.824;2023-02-02T05:58:48;96973.69;;;2.61;74.16
67397;BME280;57728;50.448;18.824;2023-02-02T06:00:50;96939.16;;;2.38;73.88
67397;BME280;57728;50.448;18.824;2023-02-02T06:02:52;97000.16;;;2.71;73.74
67397;BME280;57728;50.448;18.824;2023-02-02T06:04:53;97001.81;;;2.72;73.68
67397;BME280;57728;50.448;18.824;2023-02-02T06:06:55;97011.13;;;2.76;73.57
67397;BME280;57728;50.448;18.824;2023-02-02T06:08:57;97016.47;;;2.83;73.64
67397;BME280;57728;50.448;18.824;2023-02-02T06:10:58;97009.03;;;2.71;73.57
67397;BME280;57728;50.448;18.824;2023-02-02T06:13:01;97021.03;;;2.75;73.73
67397;BME280;57728;50.448;18.824;2023-02-02T06:15:02;97023.09;;;2.73;73.90
67397;BME280;57728;50.448;18.824;2023-02-02T06:17:04;97015.88;;;2.67;73.97
67397;BME280;57728;50.448;18.824;2023-02-02T06:19:07;97015.25;;;2.65;73.90
67397;BME280;57728;50.448;18.824;2023-02-02T06:21:08;97032.59;;;2.69;74.08
67397;BME280;57728;50.448;18.824;2023-02-02T06:23:10;97019.78;;;2.58;74.46
67397;BME280;57728;50.448;18.824;2023-02-02T06:25:12;97008.63;;;2.48;74.68
67397;BME280;57728;50.448;18.824;2023-02-02T06:27:13;97023.91;;;2.54;75.25
67397;BME280;57728;50.448;18.824;2023-02-02T06:29:15;97010.03;;;2.37;75.88
67397;BME280;57728;50.448;18.824;2023-02-02T06:31:18;97017.09;;;2.45;75.84
67397;BME280;57728;50.448;18.824;2023-02-02T06:33:20;97015.00;;;2.33;76.13
67397;BME280;57728;50.448;18.824;2023-02-02T06:35:21;97018.28;;;2.29;76.55
67397;BME280;57728;50.448;18.824;2023-02-02T06:37:24;97026.34;;;2.35;76.80
67397;BME280;57728;50.448;18.824;2023-02-02T06:39:25;97016.44;;;2.36;76.88
67397;BME280;57728;50.448;18.824;2023-02-02T06:41:29;96975.91;;;2.24;76.97
67397;BME280;57728;50.448;18.824;2023-02-02T06:43:32;97028.03;;;2.36;77.00
67397;BME280;57728;50.448;18.824;2023-02-02T06:45:33;97013.09;;;2.20;77.15
67397;BME280;57728;50.448;18.824;2023-02-02T06:47:39;97028.03;;;2.36;77.05
67397;BME280;57728;50.448;18.824;2023-02-02T06:49:42;97016.22;;;2.37;77.13
67397;BME280;57728;50.448;18.824;2023-02-02T06:51:43;97025.53;;;2.35;77.41
67397;BME280;57728;50.448;18.824;2023-02-02T06:53:47;96986.63;;;2.11;77.60
67397;BME280;57728;50.448;18.824;2023-02-02T06:55:58;96973.81;;;2.06;77.76
67397;BME280;57728;50.448;18.824;2023-02-02T06:58:02;96992.84;;;2.18;77.71
67397;BME280;57728;50.448;18.824;2023-02-02T07:00:03;96989.72;;;2.14;77.71
67397;BME280;57728;50.448;18.824;2023-02-02T07:02:12;96972.16;;;2.12;77.76
67397;BME280;57728;50.448;18.824;2023-02-02T07:04:16;97035.03;;;2.37;77.63
67397;BME280;57728;50.448;18.824;2023-02-02T07:06:27;97010.84;;;2.37;78.10
67397;BME280;57728;50.448;18.824;2023-02-02T07:08:29;97025.94;;;2.38;78.29
67397;BME280;57728;50.448;18.824;2023-02-02T07:10:31;96992.66;;;2.19;78.04
67397;BME280;57728;50.448;18.824;2023-02-02T07:12:32;96974.44;;;2.15;78.15
67397;BME280;57728;50.448;18.824;2023-02-02T07:14:34;96990.59;;;2.28;78.00
67397;BME280;57728;50.448;18.824;2023-02-02T07:16:36;97017.06;;;2.38;77.95
67397;BME280;57728;50.448;18.824;2023-02-02T07:18:38;96974.25;;;2.10;78.00
67397;BME280;57728;50.448;18.824;2023-02-02T07:20:40;97030.28;;;2.39;77.81
67397;BME280;57728;50.448;18.824;2023-02-02T07:22:42;96983.97;;;2.24;77.76
67397;BME280;57728;50.448;18.824;2023-02-02T07:24:43;96986.25;;;2.27;77.71
67397;BME280;57728;50.448;18.824;2023-02-02T07:26:45;97022.03;;;2.41;77.95
67397;BME280;57728;50.448;18.824;2023-02-02T07:28:47;97028.41;;;2.40;77.81
67397;BME280;57728;50.448;18.824;2023-02-02T07:30:48;97008.16;;;2.31;78.07
67397;BME280;57728;50.448;18.824;2023-02-02T07:32:50;97016.44;;;2.29;78.29
67397;BME280;57728;50.448;18.824;2023-02-02T07:34:52;97017.44;;;2.21;78.27
67397;BME280;57728;50.448;18.824;2023-02-02T07:36:53;97019.13;;;2.29;78.37
67397;BME280;57728;50.448;18.824;2023-02-02T07:38:55;97042.03;;;2.25;78.41
67397;BME280;57728;50.448;18.824;2023-02-02T07:41:02;96999.03;;;2.12;78.67
67397;BME280;57728;50.448;18.824;2023-02-02T07:43:04;97028.59;;;2.18;78.86
67397;BME280;57728;50.448;18.824;2023-02-02T07:45:06;97016.34;;;2.09;79.05
67397;BME280;57728;50.448;18.824;2023-02-02T07:47:08;97033.94;;;2.18;78.99
67397;BME280;57728;50.448;18.824;2023-02-02T07:49:15;96997.34;;;2.04;79.07
67397;BME280;57728;50.448;18.824;2023-02-02T07:51:18;97012.66;;;2.10;79.33
67397;BME280;57728;50.448;18.824;2023-02-02T07:53:20;96994.03;;;1.95;79.22
67397;BME280;57728;50.448;18.824;2023-02-02T07:55:23;96966.06;;;1.76;79.30
67397;BME280;57728;50.448;18.824;2023-02-02T07:57:25;97021.34;;;2.12;79.44
67397;BME280;57728;50.448;18.824;2023-02-02T07:59:26;97034.97;;;2.17;79.30
67397;BME280;57728;50.448;18.824;2023-02-02T08:01:28;97037.88;;;2.22;79.31
67397;BME280;57728;50.448;18.824;2023-02-02T08:03:30;97043.25;;;2.22;79.42
67397;BME280;57728;50.448;18.824;2023-02-02T08:05:32;97039.34;;;2.25;79.30
67397;BME280;57728;50.448;18.824;2023-02-02T08:07:35;97037.06;;;2.15;79.38
67397;BME280;57728;50.448;18.824;2023-02-02T08:09:37;97048.44;;;2.24;79.52
67397;BME280;57728;50.448;18.824;2023-02-02T08:11:38;97036.63;;;2.18;79.44
67397;BME280;57728;50.448;18.824;2023-02-02T08:13:42;97034.56;;;2.14;79.35
67397;BME280;57728;50.448;18.824;2023-02-02T08:15:45;97059.19;;;2.24;79.45
67397;BME280;57728;50.448;18.824;2023-02-02T08:17:46;97053.81;;;2.24;79.40
67397;BME280;57728;50.448;18.824;2023-02-02T08:19:49;97055.84;;;2.22;79.35
67397;BME280;57728;50.448;18.824;2023-02-02T08:21:53;97036.78;;;2.03;79.49
67397;BME280;57728;50.448;18.824;2023-02-02T08:23:54;97052.31;;;2.15;79.77
67397;BME280;57728;50.448;18.824;2023-02-02T08:26:18;97065.38;;;2.24;79.60
67397;BME280;57728;50.448;18.824;2023-02-02T08:28:22;97054.41;;;2.26;79.68
67397;BME280;57728;50.448;18.824;2023-02-02T08:30:24;97003.91;;;1.95;79.54
67397;BME280;57728;50.448;18.824;2023-02-02T08:32:29;97031.66;;;2.09;79.57
67397;BME280;57728;50.448;18.824;2023-02-02T08:34:32;97058.72;;;2.20;79.64
67397;BME280;57728;50.448;18.824;2023-02-02T08:36:37;96998.94;;;1.85;79.67
67397;BME280;57728;50.448;18.824;2023-02-02T08:38:38;97063.72;;;2.23;80.00
67397;BME280;57728;50.448;18.824;2023-02-02T08:40:40;97076.31;;;2.23;80.01
67397;BME280;57728;50.448;18.824;2023-02-02T08:42:42;97022.31;;;1.91;80.03
67397;BME280;57728;50.448;18.824;2023-02-02T08:44:46;97050.03;;;2.12;80.03
67397;BME280;57728;50.448;18.824;2023-02-02T08:46:48;97064.09;;;2.20;80.05
67397;BME280;57728;50.448;18.824;2023-02-02T08:48:49;97010.91;;;1.89;79.84
67397;BME280;57728;50.448;18.824;2023-02-02T08:50:55;97071.56;;;2.25;79.92
67397;BME280;57728;50.448;18.824;2023-02-02T08:52:59;97073.03;;;2.34;79.77
67397;BME280;57728;50.448;18.824;2023-02-02T08:55:01;97070.16;;;2.29;79.78
67397;BME280;57728;50.448;18.824;2023-02-02T08:57:03;97079.25;;;2.35;79.74
67397;BME280;57728;50.448;18.824;2023-02-02T08:59:05;97025.59;;;1.93;79.63
67397;BME280;57728;50.448;18.824;2023-02-02T09:01:16;97076.09;;;2.24;79.88
67397;BME280;57728;50.448;18.824;2023-02-02T09:03:22;97080.88;;;2.22;79.88
67397;BME280;57728;50.448;18.824;2023-02-02T09:05:24;97087.91;;;2.30;79.98
67397;BME280;57728;50.448;18.824;2023-02-02T09:07:25;97065.28;;;2.04;79.96
67397;BME280;57728;50.448;18.824;2023-02-02T09:09:27;97098.84;;;2.29;80.27
67397;BME280;57728;50.448;18.824;2023-02-02T09:11:29;97088.31;;;2.27;80.26
67397;BME280;57728;50.448;18.824;2023-02-02T09:13:31;97100.53;;;2.36;80.30
67397;BME280;57728;50.448;18.824;2023-02-02T09:15:32;97105.50;;;2.39;80.24
67397;BME280;57728;50.448;18.824;2023-02-02T09:17:35;97112.34;;;2.42;80.30
67397;BME280;57728;50.448;18.824;2023-02-02T09:19:36;97085.38;;;2.22;80.11
67397;BME280;57728;50.448;18.824;2023-02-02T09:21:37;97120.59;;;2.47;80.27
67397;BME280;57728;50.448;18.824;2023-02-02T09:23:42;97126.00;;;2.54;80.36
67397;BME280;57728;50.448;18.824;2023-02-02T09:25:45;97148.34;;;2.61;80.36
67397;BME280;57728;50.448;18.824;2023-02-02T09:27:47;97099.13;;;2.54;80.23
67397;BME280;57728;50.448;18.824;2023-02-02T09:29:49;97128.75;;;2.74;80.04
67397;BME280;57728;50.448;18.824;2023-02-02T09:31:52;97121.75;;;2.73;80.00
67397;BME280;57728;50.448;18.824;2023-02-02T09:33:53;97131.03;;;2.77;79.99
67397;BME280;57728;50.448;18.824;2023-02-02T09:36:05;97123.59;;;2.92;79.70
67397;BME280;57728;50.448;18.824;2023-02-02T09:38:27;97113.06;;;2.84;79.69
67397;BME280;57728;50.448;18.824;2023-02-02T09:40:33;97140.38;;;2.95;79.54
67397;BME280;57728;50.448;18.824;2023-02-02T09:52:01;97134.19;;;3.21;78.58
67397;BME280;57728;50.448;18.824;2023-02-02T09:54:17;97155.94;;;3.33;78.45
67397;BME280;57728;50.448;18.824;2023-02-02T09:56:33;97162.16;;;3.33;78.28
67397;BME280;57728;50.448;18.824;2023-02-02T09:58:58;97161.13;;;3.34;77.97
67397;BME280;57728;50.448;18.824;2023-02-02T10:01:12;97125.28;;;3.14;77.75
67397;BME280;57728;50.448;18.824;2023-02-02T10:04:06;97167.13;;;3.36;77.75
67397;BME280;57728;50.448;18.824;2023-02-02T10:06:38;97165.88;;;3.39;77.53
67397;BME280;57728;50.448;18.824;2023-02-02T10:08:53;97136.91;;;3.27;77.56
67397;BME280;57728;50.448;18.824;2023-02-02T10:11:07;97172.50;;;3.50;77.38
67397;BME280;57728;50.448;18.824;2023-02-02T10:13:37;97161.75;;;3.50;77.31
67397;BME280;57728;50.448;18.824;2023-02-02T10:21:11;97132.34;;;3.55;75.77
67397;BME280;57728;50.448;18.824;2023-02-02T10:23:34;97154.47;;;3.77;75.78
67397;BME280;57728;50.448;18.824;2023-02-02T10:25:55;97156.97;;;3.78;75.03
67397;BME280;57728;50.448;18.824;2023-02-02T10:28:17;97181.59;;;4.02;74.82
67397;BME280;57728;50.448;18.824;2023-02-02T10:30:41;97171.84;;;4.01;74.19
67397;BME280;57728;50.448;18.824;2023-02-02T10:33:21;97179.47;;;4.18;73.05
67397;BME280;57728;50.448;18.824;2023-02-02T10:35:38;97188.00;;;4.15;71.56
67397;BME280;57728;50.448;18.824;2023-02-02T10:45:14;97198.13;;;4.19;71.46
67397;BME280;57728;50.448;18.824;2023-02-02T10:47:27;97200.19;;;4.24;71.99
67397;BME280;57728;50.448;18.824;2023-02-02T10:51:37;97203.94;;;4.23;71.91
67397;BME280;57728;50.448;18.824;2023-02-02T10:53:49;97213.06;;;4.22;72.15
67397;BME280;57728;50.448;18.824;2023-02-02T10:55:59;97179.91;;;4.01;71.96
67397;BME280;57728;50.448;18.824;2023-02-02T11:02:39;97205.19;;;4.13;71.33
67397;BME280;57728;50.448;18.824;2023-02-02T11:04:41;97198.78;;;4.01;70.83
67397;BME280;57728;50.448;18.824;2023-02-02T11:07:01;97227.97;;;4.04;70.52
67397;BME280;57728;50.448;18.824;2023-02-02T11:09:03;97187.81;;;3.89;70.72
67397;BME280;57728;50.448;18.824;2023-02-02T11:11:34;97208.94;;;3.99;69.60
67397;BME280;57728;50.448;18.824;2023-02-02T11:18:28;97215.16;;;4.00;70.09
67397;BME280;57728;50.448;18.824;2023-02-02T11:20:33;97167.94;;;3.77;70.25
67397;BME280;57728;50.448;18.824;2023-02-02T11:22:39;97221.16;;;3.95;70.23
67397;BME280;57728;50.448;18.824;2023-02-02T11:24:46;97181.00;;;3.73;69.72
67397;BME280;57728;50.448;18.824;2023-02-02T11:26:58;97221.97;;;4.09;69.93
67397;BME280;57728;50.448;18.824;2023-02-02T11:29:04;97223.44;;;3.98;69.82
67397;BME280;57728;50.448;18.824;2023-02-02T11:31:05;97226.72;;;4.13;69.80
67397;BME280;57728;50.448;18.824;2023-02-02T11:33:32;97234.00;;;4.13;69.24
67397;BME280;57728;50.448;18.824;2023-02-02T11:35:36;97246.84;;;4.11;69.28
67397;BME280;57728;50.448;18.824;2023-02-02T11:38:19;97259.06;;;4.13;69.59
67397;BME280;57728;50.448;18.824;2023-02-02T11:40:37;97249.31;;;4.12;69.47
67397;BME280;57728;50.448;18.824;2023-02-02T11:42:46;97252.66;;;4.08;69.12
67397;BME280;57728;50.448;18.824;2023-02-02T11:44:51;97224.69;;;3.89;69.01
67397;BME280;57728;50.448;18.824;2023-02-02T11:46:55;97246.22;;;4.02;68.74
67397;BME280;57728;50.448;18.824;2023-02-02T11:49:05;97223.03;;;3.94;68.72
67397;BME280;57728;50.448;18.824;2023-02-02T11:51:22;97205.03;;;3.75;67.37
67397;BME280;57728;50.448;18.824;2023-02-02T11:55:42;97281.03;;;4.10;66.90
67397;BME280;57728;50.448;18.824;2023-02-02T11:58:41;97265.47;;;4.19;66.46
67397;BME280;57728;50.448;18.824;2023-02-02T12:03:31;97292.00;;;4.22;66.40
67397;BME280;57728;50.448;18.824;2023-02-02T12:05:36;97263.22;;;4.23;65.86